»·PEaware :: N251CV KAVX-KSAN

N251CV :: KAVX-KSAN

FLIGHT INFORMATION

Flight Status: Arrived
Operator: Privately registered:
United States
More flights under this callsign
Pilot: James G. (23650)
Aircraft: Unknown
(SF50)
More flights by this aircraft type
Origin: KAVX Catalina
United States
Destination: KSAN San Diego Intl-Lindbergh
United States
More flights between these airports :: More routes between these airports
Route: SXC V208 LAX118R CARDI MZB320R MZB
File this flight plan on PilotEdge
Remarks: TEC route CSTP54 - I-8 Rating
Altitude:
(Current/Filed)
11,000ft
Speed:
(Current/Filed)
220kts
Departed: 09-Feb-20 10:24 AM
Arrived: 09-Feb-20 11:10 AM
Distance/Time
Traveled:
74nm/0:46
Distance/Time
To Go:
Arrived

Flight Plot

Page will automatically refresh every two minutes.


Map Options




Map Legend


Flown Route
Filed Route
Departure Airport
Arrival Airport
Navaid (VOR, NDB)
Fix

Horizontal Profiles

Position Reports

Time Latitude Longitude Heading Altitude Ground
Speed
09-Feb-20 10:00 33.403282 -118.416626 0 1570ft 0kts
09-Feb-20 10:01 33.403282 -118.416626 0 1570ft 0kts
09-Feb-20 10:02 33.403282 -118.416626 0 1570ft 0kts
09-Feb-20 10:03 33.403282 -118.416626 0 1570ft 0kts
09-Feb-20 10:04 33.403282 -118.416626 0 1570ft 0kts
09-Feb-20 10:06 33.403282 -118.416626 0 1570ft 0kts
09-Feb-20 10:07 33.403282 -118.416626 0 1570ft 0kts
09-Feb-20 10:08 33.403282 -118.416626 0 1570ft 0kts
09-Feb-20 10:09 33.403282 -118.416626 0 1570ft 0kts
09-Feb-20 10:10 33.403282 -118.416626 0 1570ft 0kts
09-Feb-20 10:11 33.403282 -118.416626 0 1570ft 0kts
09-Feb-20 10:12 33.403282 -118.416626 0 1570ft 0kts
09-Feb-20 10:13 33.403282 -118.416626 0 1570ft 0kts
09-Feb-20 10:14 33.403282 -118.416626 0 1570ft 0kts
09-Feb-20 10:15 33.403282 -118.416626 0 1570ft 0kts
09-Feb-20 10:16 33.403282 -118.416626 0 1570ft 0kts
09-Feb-20 10:17 33.403282 -118.416626 0 1570ft 0kts
09-Feb-20 10:18 33.403282 -118.416626 0 1570ft 0kts
09-Feb-20 10:19 33.403282 -118.416626 0 1570ft 0kts
09-Feb-20 10:20 33.403282 -118.416626 0 1570ft 0kts
09-Feb-20 10:21 33.403282 -118.416626 0 1570ft 0kts
09-Feb-20 10:22 33.403318 -118.416626 0 1570ft 3kts
09-Feb-20 10:23 33.406721 -118.412176 55 1570ft 25kts
09-Feb-20 10:24 33.400858 -118.421990 231 1930ft 127kts
09-Feb-20 10:24 33.369793 -118.451781 181 3015ft 257kts
09-Feb-20 10:25 33.339036 -118.373223 80 4244ft 312kts
09-Feb-20 10:27 33.352102 -118.244722 100 5002ft 342kts
09-Feb-20 10:27 33.340374 -118.143358 99 5004ft 347kts
09-Feb-20 10:28 33.327785 -118.027641 99 5752ft 331kts
09-Feb-20 10:30 33.312102 -117.898446 103 7552ft 321kts
09-Feb-20 10:30 33.299753 -117.809076 102 9263ft 315kts
09-Feb-20 10:31 33.284371 -117.702687 102 11019ft 326kts
09-Feb-20 10:32 33.266865 -117.587932 102 11021ft 359kts
09-Feb-20 10:33 33.207988 -117.498843 141 11020ft 350kts
09-Feb-20 10:34 33.137987 -117.415141 146 10327ft 359kts
09-Feb-20 10:35 33.056316 -117.373133 160 9334ft 298kts
09-Feb-20 10:36 32.982547 -117.333826 159 7985ft 303kts
09-Feb-20 10:37 32.906091 -117.292435 159 6963ft 291kts
09-Feb-20 10:38 32.836939 -117.254981 159 6975ft 277kts
09-Feb-20 10:39 32.767041 -117.216495 149 6974ft 280kts
09-Feb-20 10:40 32.743184 -117.127535 101 6987ft 291kts
09-Feb-20 10:41 32.729302 -117.033197 101 6991ft 286kts
09-Feb-20 10:42 32.718161 -116.939692 101 6995ft 285kts
09-Feb-20 10:43 32.707246 -116.845565 101 6996ft 288kts
09-Feb-20 10:44 32.696228 -116.750474 101 6995ft 289kts
09-Feb-20 10:45 32.654256 -116.693805 204 7000ft 254kts
09-Feb-20 10:46 32.638985 -116.768964 270 6242ft 225kts
09-Feb-20 10:47 32.644703 -116.834142 271 5134ft 187kts
09-Feb-20 10:48 32.650330 -116.895052 271 4992ft 186kts
09-Feb-20 10:49 32.656068 -116.957118 271 4995ft 195kts
09-Feb-20 10:50 32.661359 -117.023271 271 4995ft 205kts
09-Feb-20 10:51 32.660826 -117.091090 271 4997ft 201kts
09-Feb-20 10:52 32.660045 -117.153794 271 4995ft 184kts
09-Feb-20 10:53 32.659777 -117.213997 271 4991ft 180kts
09-Feb-20 10:54 32.660554 -117.273013 271 4987ft 176kts
09-Feb-20 10:55 32.629878 -117.284099 112 4990ft 206kts
09-Feb-20 10:56 32.634349 -117.216695 81 4991ft 202kts
09-Feb-20 10:57 32.637158 -117.150552 85 4996ft 197kts
09-Feb-20 10:58 32.638798 -117.086017 85 4998ft 193kts
09-Feb-20 10:59 32.636460 -117.022723 98 4989ft 183kts
09-Feb-20 11:00 32.634825 -116.961450 96 4981ft 190kts
09-Feb-20 11:01 32.634833 -116.896624 81 4964ft 206kts
09-Feb-20 11:02 32.672106 -116.903490 258 4967ft 182kts
09-Feb-20 11:03 32.678469 -116.963709 280 4163ft 176kts
09-Feb-20 11:04 32.692138 -117.019876 283 3645ft 182kts
09-Feb-20 11:05 32.705178 -117.073183 285 2089ft 135kts
09-Feb-20 11:06 32.715419 -117.114618 287 1473ft 129kts
09-Feb-20 11:07 32.724713 -117.153175 285 728ft 119kts
09-Feb-20 11:08 32.732214 -117.183995 283 19ft 55kts
09-Feb-20 11:09 32.732683 -117.188490 201 18ft 0kts
09-Feb-20 11:10 32.732666 -117.188498 201 18ft 0kts
09-Feb-20 11:11 32.731499 -117.190942 201 19ft 12kts
09-Feb-20 11:12 32.731356 -117.191641 292 19ft 0kts
09-Feb-20 11:13 32.731356 -117.191641 292 19ft 0kts
09-Feb-20 11:14 32.731356 -117.191641 292 19ft 0kts

Navigation Log

Ident Type
Flight plan parsing failed, navigation log unavailable